sensor_id;sensor_type;location;lat;lon;timestamp;pressure;altitude;pressure_sealevel;temperature;humidity
75555;BME280;66087;53.126;17.960;2024-02-15T00:01:12;101149.73;;;5.97;94.67
75555;BME280;66087;53.126;17.960;2024-02-15T00:03:40;101147.27;;;5.97;95.02
75555;BME280;66087;53.126;17.960;2024-02-15T00:06:07;101153.05;;;5.97;95.01
75555;BME280;66087;53.126;17.960;2024-02-15T00:08:34;101151.08;;;5.98;95.10
75555;BME280;66087;53.126;17.960;2024-02-15T00:11:01;101147.61;;;5.99;95.23
75555;BME280;66087;53.126;17.960;2024-02-15T00:13:29;101145.77;;;5.99;95.09
75555;BME280;66087;53.126;17.960;2024-02-15T00:15:57;101144.00;;;6.00;95.51
75555;BME280;66087;53.126;17.960;2024-02-15T00:18:24;101140.02;;;6.02;95.60
75555;BME280;66087;53.126;17.960;2024-02-15T00:20:51;101142.41;;;6.02;95.41
75555;BME280;66087;53.126;17.960;2024-02-15T00:23:18;101138.71;;;6.02;95.53
75555;BME280;66087;53.126;17.960;2024-02-15T00:25:45;101142.98;;;6.05;95.95
75555;BME280;66087;53.126;17.960;2024-02-15T00:28:12;101137.60;;;6.05;95.89
75555;BME280;66087;53.126;17.960;2024-02-15T00:30:39;101138.08;;;6.06;96.41
75555;BME280;66087;53.126;17.960;2024-02-15T00:33:09;101136.84;;;6.08;96.05
75555;BME280;66087;53.126;17.960;2024-02-15T00:35:36;101136.46;;;6.08;96.09
75555;BME280;66087;53.126;17.960;2024-02-15T00:38:03;101136.25;;;6.09;96.20
75555;BME280;66087;53.126;17.960;2024-02-15T00:40:34;101138.04;;;6.10;96.29
75555;BME280;66087;53.126;17.960;2024-02-15T00:43:01;101137.42;;;6.11;96.33
75555;BME280;66087;53.126;17.960;2024-02-15T00:45:28;101138.84;;;6.11;96.41
75555;BME280;66087;53.126;17.960;2024-02-15T00:47:56;101137.69;;;6.12;96.43
75555;BME280;66087;53.126;17.960;2024-02-15T00:50:23;101136.70;;;6.14;96.35
75555;BME280;66087;53.126;17.960;2024-02-15T00:52:49;101139.11;;;6.15;96.56
75555;BME280;66087;53.126;17.960;2024-02-15T00:55:17;101140.89;;;6.15;97.09
75555;BME280;66087;53.126;17.960;2024-02-15T00:57:45;101138.52;;;6.16;96.77
75555;BME280;66087;53.126;17.960;2024-02-15T01:00:13;101138.45;;;6.18;96.77
75555;BME280;66087;53.126;17.960;2024-02-15T01:02:40;101138.02;;;6.20;97.03
75555;BME280;66087;53.126;17.960;2024-02-15T01:05:07;101136.34;;;6.22;96.95
75555;BME280;66087;53.126;17.960;2024-02-15T01:07:36;101135.98;;;6.24;97.32
75555;BME280;66087;53.126;17.960;2024-02-15T01:10:03;101134.46;;;6.26;97.03
75555;BME280;66087;53.126;17.960;2024-02-15T01:12:30;101134.48;;;6.26;97.31
75555;BME280;66087;53.126;17.960;2024-02-15T01:14:57;101134.25;;;6.28;97.46
75555;BME280;66087;53.126;17.960;2024-02-15T01:17:25;101131.02;;;6.29;97.51
75555;BME280;66087;53.126;17.960;2024-02-15T01:19:52;101131.59;;;6.29;97.38
75555;BME280;66087;53.126;17.960;2024-02-15T01:22:21;101132.22;;;6.30;97.35
75555;BME280;66087;53.126;17.960;2024-02-15T01:24:50;101128.28;;;6.31;97.50
75555;BME280;66087;53.126;17.960;2024-02-15T01:27:17;101131.67;;;6.32;97.52
75555;BME280;66087;53.126;17.960;2024-02-15T01:29:44;101128.61;;;6.33;97.68
75555;BME280;66087;53.126;17.960;2024-02-15T01:32:11;101128.33;;;6.34;97.57
75555;BME280;66087;53.126;17.960;2024-02-15T01:34:40;101130.95;;;6.34;97.58
75555;BME280;66087;53.126;17.960;2024-02-15T01:37:07;101131.35;;;6.35;97.67
75555;BME280;66087;53.126;17.960;2024-02-15T01:39:34;101127.50;;;6.36;97.65
75555;BME280;66087;53.126;17.960;2024-02-15T01:42:00;101127.98;;;6.38;97.91
75555;BME280;66087;53.126;17.960;2024-02-15T01:44:29;101123.52;;;6.39;97.67
75555;BME280;66087;53.126;17.960;2024-02-15T01:46:59;101121.91;;;6.40;97.80
75555;BME280;66087;53.126;17.960;2024-02-15T01:49:27;101119.92;;;6.41;97.86
75555;BME280;66087;53.126;17.960;2024-02-15T01:51:56;101115.60;;;6.42;97.87
75555;BME280;66087;53.126;17.960;2024-02-15T01:54:27;101117.38;;;6.43;98.11
75555;BME280;66087;53.126;17.960;2024-02-15T01:56:54;101113.77;;;6.44;98.06
75555;BME280;66087;53.126;17.960;2024-02-15T01:59:23;101114.80;;;6.45;98.39
75555;BME280;66087;53.126;17.960;2024-02-15T02:01:50;101114.80;;;6.46;98.49
75555;BME280;66087;53.126;17.960;2024-02-15T02:04:17;101113.75;;;6.48;98.53
75555;BME280;66087;53.126;17.960;2024-02-15T02:06:44;101116.61;;;6.48;98.43
75555;BME280;66087;53.126;17.960;2024-02-15T02:09:12;101115.23;;;6.51;98.63
75555;BME280;66087;53.126;17.960;2024-02-15T02:11:39;101112.02;;;6.52;98.57
75555;BME280;66087;53.126;17.960;2024-02-15T02:14:06;101112.02;;;6.53;98.87
75555;BME280;66087;53.126;17.960;2024-02-15T02:16:33;101111.02;;;6.55;98.81
75555;BME280;66087;53.126;17.960;2024-02-15T02:19:01;101109.89;;;6.56;98.57
75555;BME280;66087;53.126;17.960;2024-02-15T02:21:28;101110.44;;;6.56;98.79
75555;BME280;66087;53.126;17.960;2024-02-15T02:23:57;101107.59;;;6.57;98.72
75555;BME280;66087;53.126;17.960;2024-02-15T02:26:25;101105.83;;;6.58;98.83
75555;BME280;66087;53.126;17.960;2024-02-15T02:28:54;101107.85;;;6.59;98.90
75555;BME280;66087;53.126;17.960;2024-02-15T02:31:21;101107.38;;;6.60;99.07
75555;BME280;66087;53.126;17.960;2024-02-15T02:33:51;101105.38;;;6.61;99.34
75555;BME280;66087;53.126;17.960;2024-02-15T02:36:19;101103.48;;;6.62;99.14
75555;BME280;66087;53.126;17.960;2024-02-15T02:38:46;101103.72;;;6.63;99.83
75555;BME280;66087;53.126;17.960;2024-02-15T02:41:16;101105.73;;;6.64;99.64
75555;BME280;66087;53.126;17.960;2024-02-15T02:43:45;101100.48;;;6.65;99.64
75555;BME280;66087;53.126;17.960;2024-02-15T02:46:12;101099.27;;;6.65;99.64
75555;BME280;66087;53.126;17.960;2024-02-15T02:48:40;101099.51;;;6.66;99.73
75555;BME280;66087;53.126;17.960;2024-02-15T02:51:07;101096.42;;;6.68;99.79
75555;BME280;66087;53.126;17.960;2024-02-15T02:53:34;101103.69;;;6.68;99.74
75555;BME280;66087;53.126;17.960;2024-02-15T02:56:02;101099.98;;;6.69;99.73
75555;BME280;66087;53.126;17.960;2024-02-15T02:58:30;101100.93;;;6.70;99.59
75555;BME280;66087;53.126;17.960;2024-02-15T03:00:57;101100.39;;;6.70;99.70
75555;BME280;66087;53.126;17.960;2024-02-15T03:03:27;101101.64;;;6.72;99.76
75555;BME280;66087;53.126;17.960;2024-02-15T03:05:53;101100.20;;;6.73;99.99
75555;BME280;66087;53.126;17.960;2024-02-15T03:08:20;101103.75;;;6.73;99.87
75555;BME280;66087;53.126;17.960;2024-02-15T03:10:49;101103.45;;;6.75;99.90
75555;BME280;66087;53.126;17.960;2024-02-15T03:13:18;101098.06;;;6.76;99.97
75555;BME280;66087;53.126;17.960;2024-02-15T03:15:47;101100.15;;;6.76;99.91
75555;BME280;66087;53.126;17.960;2024-02-15T03:18:16;101100.23;;;6.77;99.97
75555;BME280;66087;53.126;17.960;2024-02-15T03:20:43;101100.85;;;6.77;99.97
75555;BME280;66087;53.126;17.960;2024-02-15T03:23:10;101101.24;;;6.78;100.00
75555;BME280;66087;53.126;17.960;2024-02-15T03:25:37;101102.48;;;6.78;100.00
75555;BME280;66087;53.126;17.960;2024-02-15T03:28:05;101105.44;;;6.80;100.00
75555;BME280;66087;53.126;17.960;2024-02-15T03:30:32;101106.21;;;6.81;100.00
75555;BME280;66087;53.126;17.960;2024-02-15T03:33:01;101106.60;;;6.81;100.00
75555;BME280;66087;53.126;17.960;2024-02-15T03:35:31;101104.07;;;6.83;100.00
75555;BME280;66087;53.126;17.960;2024-02-15T03:38:04;101105.17;;;6.84;100.00
75555;BME280;66087;53.126;17.960;2024-02-15T03:40:31;101106.71;;;6.85;100.00
75555;BME280;66087;53.126;17.960;2024-02-15T03:42:59;101107.79;;;6.85;100.00
75555;BME280;66087;53.126;17.960;2024-02-15T03:45:26;101104.56;;;6.85;100.00
75555;BME280;66087;53.126;17.960;2024-02-15T03:47:54;101104.39;;;6.85;100.00
75555;BME280;66087;53.126;17.960;2024-02-15T03:50:22;101105.31;;;6.85;100.00
75555;BME280;66087;53.126;17.960;2024-02-15T03:52:50;101101.61;;;6.85;100.00
75555;BME280;66087;53.126;17.960;2024-02-15T03:55:18;101103.02;;;6.86;100.00
75555;BME280;66087;53.126;17.960;2024-02-15T03:57:45;101103.64;;;6.86;100.00
75555;BME280;66087;53.126;17.960;2024-02-15T04:00:13;101103.17;;;6.87;100.00
75555;BME280;66087;53.126;17.960;2024-02-15T04:02:47;101101.56;;;6.87;100.00
75555;BME280;66087;53.126;17.960;2024-02-15T04:05:15;101098.93;;;6.86;100.00
75555;BME280;66087;53.126;17.960;2024-02-15T04:07:44;101102.57;;;6.87;100.00
75555;BME280;66087;53.126;17.960;2024-02-15T04:10:11;101106.44;;;6.87;100.00
75555;BME280;66087;53.126;17.960;2024-02-15T04:12:39;101107.02;;;6.86;100.00
75555;BME280;66087;53.126;17.960;2024-02-15T04:15:08;101112.46;;;6.88;100.00
75555;BME280;66087;53.126;17.960;2024-02-15T04:17:39;101113.17;;;6.90;100.00
75555;BME280;66087;53.126;17.960;2024-02-15T04:20:08;101115.05;;;6.91;100.00
75555;BME280;66087;53.126;17.960;2024-02-15T04:22:35;101114.59;;;6.91;100.00
75555;BME280;66087;53.126;17.960;2024-02-15T04:25:05;101113.43;;;6.92;100.00
75555;BME280;66087;53.126;17.960;2024-02-15T04:27:33;101114.30;;;6.93;100.00
75555;BME280;66087;53.126;17.960;2024-02-15T04:30:00;101116.14;;;6.93;100.00
75555;BME280;66087;53.126;17.960;2024-02-15T04:32:29;101120.35;;;6.95;100.00
75555;BME280;66087;53.126;17.960;2024-02-15T04:35:00;101115.08;;;6.95;100.00
75555;BME280;66087;53.126;17.960;2024-02-15T04:37:28;101117.71;;;6.96;100.00
75555;BME280;66087;53.126;17.960;2024-02-15T04:40:00;101117.88;;;6.96;100.00
75555;BME280;66087;53.126;17.960;2024-02-15T04:42:34;101118.20;;;6.97;100.00
75555;BME280;66087;53.126;17.960;2024-02-15T04:45:04;101119.27;;;6.97;100.00
75555;BME280;66087;53.126;17.960;2024-02-15T04:47:36;101116.63;;;6.96;100.00
75555;BME280;66087;53.126;17.960;2024-02-15T04:50:03;101116.72;;;6.96;100.00
75555;BME280;66087;53.126;17.960;2024-02-15T04:52:32;101109.84;;;6.95;100.00
75555;BME280;66087;53.126;17.960;2024-02-15T04:55:02;101115.63;;;6.94;100.00
75555;BME280;66087;53.126;17.960;2024-02-15T04:57:31;101115.23;;;6.94;100.00
75555;BME280;66087;53.126;17.960;2024-02-15T05:00:01;101117.00;;;6.93;100.00
75555;BME280;66087;53.126;17.960;2024-02-15T05:02:28;101121.10;;;6.94;100.00
75555;BME280;66087;53.126;17.960;2024-02-15T05:04:54;101122.66;;;6.94;100.00
75555;BME280;66087;53.126;17.960;2024-02-15T05:07:23;101123.42;;;6.94;100.00
75555;BME280;66087;53.126;17.960;2024-02-15T05:09:50;101120.73;;;6.95;100.00
75555;BME280;66087;53.126;17.960;2024-02-15T05:12:23;101118.32;;;6.94;100.00
75555;BME280;66087;53.126;17.960;2024-02-15T05:14:53;101118.88;;;6.95;100.00
75555;BME280;66087;53.126;17.960;2024-02-15T05:17:20;101101.36;;;6.89;100.00
75555;BME280;66087;53.126;17.960;2024-02-15T05:19:49;101108.36;;;6.94;100.00
75555;BME280;66087;53.126;17.960;2024-02-15T05:22:16;101105.34;;;6.94;100.00
75555;BME280;66087;53.126;17.960;2024-02-15T05:24:45;101108.83;;;6.94;100.00
75555;BME280;66087;53.126;17.960;2024-02-15T05:27:12;101102.88;;;6.95;100.00
75555;BME280;66087;53.126;17.960;2024-02-15T05:29:39;101107.90;;;6.95;100.00
75555;BME280;66087;53.126;17.960;2024-02-15T05:32:10;101112.47;;;6.96;100.00
75555;BME280;66087;53.126;17.960;2024-02-15T05:34:37;101114.10;;;6.96;100.00
75555;BME280;66087;53.126;17.960;2024-02-15T05:37:06;101119.36;;;6.98;100.00
75555;BME280;66087;53.126;17.960;2024-02-15T05:39:36;101119.21;;;6.98;100.00
75555;BME280;66087;53.126;17.960;2024-02-15T05:42:02;101116.06;;;6.99;100.00
75555;BME280;66087;53.126;17.960;2024-02-15T05:44:29;101116.44;;;6.99;100.00
75555;BME280;66087;53.126;17.960;2024-02-15T05:46:57;101118.75;;;6.99;100.00
75555;BME280;66087;53.126;17.960;2024-02-15T05:49:25;101117.28;;;6.99;100.00
75555;BME280;66087;53.126;17.960;2024-02-15T05:51:51;101115.44;;;7.00;100.00
75555;BME280;66087;53.126;17.960;2024-02-15T05:54:20;101115.20;;;7.00;100.00
75555;BME280;66087;53.126;17.960;2024-02-15T05:56:49;101111.96;;;7.00;100.00
75555;BME280;66087;53.126;17.960;2024-02-15T05:59:18;101116.52;;;7.00;100.00
75555;BME280;66087;53.126;17.960;2024-02-15T06:01:47;101116.50;;;6.99;100.00
75555;BME280;66087;53.126;17.960;2024-02-15T06:04:15;101126.56;;;7.01;100.00
75555;BME280;66087;53.126;17.960;2024-02-15T06:06:43;101127.98;;;7.02;100.00
75555;BME280;66087;53.126;17.960;2024-02-15T06:09:10;101124.50;;;7.04;100.00
75555;BME280;66087;53.126;17.960;2024-02-15T06:11:36;101133.09;;;7.05;100.00
75555;BME280;66087;53.126;17.960;2024-02-15T06:14:05;101133.73;;;7.06;100.00
75555;BME280;66087;53.126;17.960;2024-02-15T06:16:33;101132.59;;;7.09;100.00
75555;BME280;66087;53.126;17.960;2024-02-15T06:18:59;101131.45;;;7.11;100.00
75555;BME280;66087;53.126;17.960;2024-02-15T06:21:27;101132.16;;;7.13;100.00
75555;BME280;66087;53.126;17.960;2024-02-15T06:23:56;101137.84;;;7.16;100.00
75555;BME280;66087;53.126;17.960;2024-02-15T06:26:25;101139.70;;;7.18;100.00
75555;BME280;66087;53.126;17.960;2024-02-15T06:28:51;101138.27;;;7.20;100.00
75555;BME280;66087;53.126;17.960;2024-02-15T06:31:28;101126.59;;;7.11;100.00
75555;BME280;66087;53.126;17.960;2024-02-15T06:34:06;101141.70;;;7.26;100.00
75555;BME280;66087;53.126;17.960;2024-02-15T06:36:47;101141.48;;;7.28;100.00
75555;BME280;66087;53.126;17.960;2024-02-15T06:39:24;101146.39;;;7.30;100.00
75555;BME280;66087;53.126;17.960;2024-02-15T06:42:01;101148.55;;;7.32;100.00
75555;BME280;66087;53.126;17.960;2024-02-15T06:44:28;101147.49;;;7.33;100.00
75555;BME280;66087;53.126;17.960;2024-02-15T06:46:56;101149.75;;;7.34;100.00
75555;BME280;66087;53.126;17.960;2024-02-15T06:49:23;101153.23;;;7.36;100.00
75555;BME280;66087;53.126;17.960;2024-02-15T06:51:51;101157.56;;;7.37;100.00
75555;BME280;66087;53.126;17.960;2024-02-15T06:54:19;101157.33;;;7.37;100.00
75555;BME280;66087;53.126;17.960;2024-02-15T06:56:46;101161.76;;;7.37;100.00
75555;BME280;66087;53.126;17.960;2024-02-15T06:59:13;101168.33;;;7.38;100.00
75555;BME280;66087;53.126;17.960;2024-02-15T07:01:41;101174.04;;;7.39;100.00
75555;BME280;66087;53.126;17.960;2024-02-15T07:04:09;101179.92;;;7.38;100.00
75555;BME280;66087;53.126;17.960;2024-02-15T07:06:37;101178.67;;;7.39;100.00
75555;BME280;66087;53.126;17.960;2024-02-15T07:09:05;101179.05;;;7.39;100.00
75555;BME280;66087;53.126;17.960;2024-02-15T07:11:33;101179.93;;;7.39;100.00
75555;BME280;66087;53.126;17.960;2024-02-15T07:14:02;101175.35;;;7.38;100.00
75555;BME280;66087;53.126;17.960;2024-02-15T07:16:31;101177.15;;;7.42;100.00
75555;BME280;66087;53.126;17.960;2024-02-15T07:18:58;101180.80;;;7.43;100.00
75555;BME280;66087;53.126;17.960;2024-02-15T07:21:26;101185.16;;;7.44;100.00
75555;BME280;66087;53.126;17.960;2024-02-15T07:23:54;101182.52;;;7.45;100.00
75555;BME280;66087;53.126;17.960;2024-02-15T07:26:23;101175.44;;;7.47;100.00
75555;BME280;66087;53.126;17.960;2024-02-15T07:28:53;101174.92;;;7.51;100.00
75555;BME280;66087;53.126;17.960;2024-02-15T07:31:20;101174.34;;;7.55;100.00
75555;BME280;66087;53.126;17.960;2024-02-15T07:33:50;101172.44;;;7.59;100.00
75555;BME280;66087;53.126;17.960;2024-02-15T07:36:19;101167.52;;;7.63;100.00
75555;BME280;66087;53.126;17.960;2024-02-15T07:38:48;101169.86;;;7.66;100.00
75555;BME280;66087;53.126;17.960;2024-02-15T07:41:17;101172.83;;;7.69;100.00
75555;BME280;66087;53.126;17.960;2024-02-15T07:43:46;101174.61;;;7.72;100.00
75555;BME280;66087;53.126;17.960;2024-02-15T07:46:14;101177.27;;;7.73;100.00
75555;BME280;66087;53.126;17.960;2024-02-15T07:48:43;101177.45;;;7.77;100.00
75555;BME280;66087;53.126;17.960;2024-02-15T07:51:14;101177.01;;;7.81;100.00
75555;BME280;66087;53.126;17.960;2024-02-15T07:53:42;101179.77;;;7.90;100.00
75555;BME280;66087;53.126;17.960;2024-02-15T07:56:10;101179.05;;;7.99;100.00
75555;BME280;66087;53.126;17.960;2024-02-15T07:58:39;101180.48;;;8.05;100.00
75555;BME280;66087;53.126;17.960;2024-02-15T08:01:08;101182.53;;;8.10;100.00
75555;BME280;66087;53.126;17.960;2024-02-15T08:03:36;101185.33;;;8.13;100.00
75555;BME280;66087;53.126;17.960;2024-02-15T08:06:03;101188.98;;;8.15;100.00
75555;BME280;66087;53.126;17.960;2024-02-15T08:08:34;101177.66;;;8.11;100.00
75555;BME280;66087;53.126;17.960;2024-02-15T08:11:03;101184.16;;;8.22;100.00
75555;BME280;66087;53.126;17.960;2024-02-15T08:13:30;101184.77;;;8.31;100.00
75555;BME280;66087;53.126;17.960;2024-02-15T08:15:57;101182.73;;;8.40;100.00
75555;BME280;66087;53.126;17.960;2024-02-15T08:18:23;101185.15;;;8.44;100.00
75555;BME280;66087;53.126;17.960;2024-02-15T08:20:52;101186.98;;;8.43;100.00
75555;BME280;66087;53.126;17.960;2024-02-15T08:23:19;101180.20;;;8.32;100.00
75555;BME280;66087;53.126;17.960;2024-02-15T08:25:45;101184.55;;;8.34;100.00
75555;BME280;66087;53.126;17.960;2024-02-15T08:28:14;101193.70;;;8.34;100.00
75555;BME280;66087;53.126;17.960;2024-02-15T08:30:43;101196.95;;;8.34;100.00
75555;BME280;66087;53.126;17.960;2024-02-15T08:33:10;101197.41;;;8.36;100.00
75555;BME280;66087;53.126;17.960;2024-02-15T08:35:38;101196.50;;;8.40;100.00
75555;BME280;66087;53.126;17.960;2024-02-15T08:38:06;101197.07;;;8.44;100.00
75555;BME280;66087;53.126;17.960;2024-02-15T08:40:33;101199.32;;;8.47;100.00
75555;BME280;66087;53.126;17.960;2024-02-15T08:43:00;101192.36;;;8.48;100.00
75555;BME280;66087;53.126;17.960;2024-02-15T08:45:27;101192.52;;;8.48;100.00
75555;BME280;66087;53.126;17.960;2024-02-15T08:47:54;101197.62;;;8.45;100.00
75555;BME280;66087;53.126;17.960;2024-02-15T08:50:20;101197.98;;;8.43;100.00
75555;BME280;66087;53.126;17.960;2024-02-15T08:52:52;101198.07;;;8.41;100.00
75555;BME280;66087;53.126;17.960;2024-02-15T08:55:19;101196.75;;;8.43;100.00
75555;BME280;66087;53.126;17.960;2024-02-15T08:57:51;101198.92;;;8.43;100.00
75555;BME280;66087;53.126;17.960;2024-02-15T09:00:18;101201.87;;;8.45;100.00
75555;BME280;66087;53.126;17.960;2024-02-15T09:02:46;101199.70;;;8.46;100.00
75555;BME280;66087;53.126;17.960;2024-02-15T09:05:13;101198.02;;;8.50;100.00
75555;BME280;66087;53.126;17.960;2024-02-15T09:07:42;101196.73;;;8.56;100.00
75555;BME280;66087;53.126;17.960;2024-02-15T09:10:09;101194.85;;;8.69;100.00
75555;BME280;66087;53.126;17.960;2024-02-15T09:12:37;101193.81;;;8.84;100.00
75555;BME280;66087;53.126;17.960;2024-02-15T09:15:07;101185.24;;;8.97;100.00
75555;BME280;66087;53.126;17.960;2024-02-15T09:17:35;101192.58;;;9.15;99.95
75555;BME280;66087;53.126;17.960;2024-02-15T09:20:08;101205.77;;;9.34;99.88
75555;BME280;66087;53.126;17.960;2024-02-15T09:22:50;101204.46;;;9.37;99.71
75555;BME280;66087;53.126;17.960;2024-02-15T09:25:18;101208.65;;;9.38;99.88
75555;BME280;66087;53.126;17.960;2024-02-15T09:27:50;101202.83;;;9.38;99.97
75555;BME280;66087;53.126;17.960;2024-02-15T09:30:18;101206.95;;;9.37;99.84
75555;BME280;66087;53.126;17.960;2024-02-15T09:32:46;101199.51;;;9.37;99.76
75555;BME280;66087;53.126;17.960;2024-02-15T09:35:13;101198.42;;;9.43;99.92
75555;BME280;66087;53.126;17.960;2024-02-15T09:37:45;101200.05;;;9.51;99.91
75555;BME280;66087;53.126;17.960;2024-02-15T09:40:13;101197.66;;;9.62;99.59
75555;BME280;66087;53.126;17.960;2024-02-15T09:42:42;101201.76;;;9.71;99.45
75555;BME280;66087;53.126;17.960;2024-02-15T09:45:12;101200.13;;;9.80;99.35
75555;BME280;66087;53.126;17.960;2024-02-15T09:47:41;101196.25;;;9.87;99.01
75555;BME280;66087;53.126;17.960;2024-02-15T09:50:11;101192.73;;;9.92;99.01
75555;BME280;66087;53.126;17.960;2024-02-15T09:52:47;101196.46;;;9.95;99.14
75555;BME280;66087;53.126;17.960;2024-02-15T09:55:26;101182.97;;;9.88;99.15
75555;BME280;66087;53.126;17.960;2024-02-15T09:57:55;101199.86;;;10.05;98.76
75555;BME280;66087;53.126;17.960;2024-02-15T10:00:21;101198.76;;;10.14;98.43
75555;BME280;66087;53.126;17.960;2024-02-15T10:02:51;101206.55;;;10.19;98.05
75555;BME280;66087;53.126;17.960;2024-02-15T10:05:19;101209.16;;;10.28;98.18
75555;BME280;66087;53.126;17.960;2024-02-15T10:07:47;101210.38;;;10.37;97.99
75555;BME280;66087;53.126;17.960;2024-02-15T10:10:19;101211.52;;;10.48;98.08
75555;BME280;66087;53.126;17.960;2024-02-15T10:12:51;101211.11;;;10.50;98.18
75555;BME280;66087;53.126;17.960;2024-02-15T10:15:31;101213.32;;;10.41;97.83
75555;BME280;66087;53.126;17.960;2024-02-15T10:18:02;101212.19;;;10.30;97.95
75555;BME280;66087;53.126;17.960;2024-02-15T10:20:30;101209.41;;;10.17;98.43
75555;BME280;66087;53.126;17.960;2024-02-15T10:23:10;101208.09;;;10.06;98.68
75555;BME280;66087;53.126;17.960;2024-02-15T10:25:38;101206.55;;;9.96;98.74
75555;BME280;66087;53.126;17.960;2024-02-15T10:28:07;101203.84;;;9.89;98.87
75555;BME280;66087;53.126;17.960;2024-02-15T10:30:36;101201.44;;;9.92;98.77
75555;BME280;66087;53.126;17.960;2024-02-15T10:33:03;101199.95;;;9.96;98.81
75555;BME280;66087;53.126;17.960;2024-02-15T10:35:31;101197.92;;;10.03;98.29
75555;BME280;66087;53.126;17.960;2024-02-15T10:38:09;101184.65;;;10.07;97.98
75555;BME280;66087;53.126;17.960;2024-02-15T10:40:37;101189.52;;;10.28;97.82
75555;BME280;66087;53.126;17.960;2024-02-15T10:43:05;101188.44;;;10.47;97.65
75555;BME280;66087;53.126;17.960;2024-02-15T10:45:34;101187.39;;;10.59;97.50
75555;BME280;66087;53.126;17.960;2024-02-15T10:48:01;101187.52;;;10.62;97.41
75555;BME280;66087;53.126;17.960;2024-02-15T10:50:28;101184.16;;;10.66;97.64
75555;BME280;66087;53.126;17.960;2024-02-15T10:52:56;101181.35;;;10.71;97.68
75555;BME280;66087;53.126;17.960;2024-02-15T10:55:36;101178.84;;;10.75;96.99
75555;BME280;66087;53.126;17.960;2024-02-15T10:58:06;101176.98;;;10.73;97.18
75555;BME280;66087;53.126;17.960;2024-02-15T11:00:34;101181.29;;;10.68;97.23
75555;BME280;66087;53.126;17.960;2024-02-15T11:03:07;101181.14;;;10.65;97.38
75555;BME280;66087;53.126;17.960;2024-02-15T11:05:37;101177.42;;;10.62;97.35
75555;BME280;66087;53.126;17.960;2024-02-15T11:08:05;101176.10;;;10.60;97.33
75555;BME280;66087;53.126;17.960;2024-02-15T11:10:34;101173.48;;;10.56;97.50
75555;BME280;66087;53.126;17.960;2024-02-15T11:13:03;101168.13;;;10.58;97.60
75555;BME280;66087;53.126;17.960;2024-02-15T11:15:40;101165.08;;;10.60;97.46
75555;BME280;66087;53.126;17.960;2024-02-15T11:18:08;101168.55;;;10.65;97.49
75555;BME280;66087;53.126;17.960;2024-02-15T11:20:48;101164.55;;;10.72;97.27
75555;BME280;66087;53.126;17.960;2024-02-15T11:23:24;101165.52;;;10.81;96.89
75555;BME280;66087;53.126;17.960;2024-02-15T11:25:52;101162.69;;;10.86;96.69
75555;BME280;66087;53.126;17.960;2024-02-15T11:28:36;101164.83;;;10.93;96.64
75555;BME280;66087;53.126;17.960;2024-02-15T11:31:07;101159.88;;;11.02;96.69
75555;BME280;66087;53.126;17.960;2024-02-15T11:33:36;101158.51;;;11.10;96.01
75555;BME280;66087;53.126;17.960;2024-02-15T11:36:08;101158.96;;;11.12;96.02
75555;BME280;66087;53.126;17.960;2024-02-15T11:38:35;101159.09;;;11.13;96.01
75555;BME280;66087;53.126;17.960;2024-02-15T11:41:05;101158.16;;;11.14;95.99
75555;BME280;66087;53.126;17.960;2024-02-15T11:43:50;101152.17;;;11.14;95.52
75555;BME280;66087;53.126;17.960;2024-02-15T11:46:27;101151.68;;;11.07;95.17
75555;BME280;66087;53.126;17.960;2024-02-15T11:48:57;101150.78;;;11.01;94.85
75555;BME280;66087;53.126;17.960;2024-02-15T11:51:32;101151.38;;;10.95;95.22
75555;BME280;66087;53.126;17.960;2024-02-15T11:54:07;101157.16;;;10.85;95.26
75555;BME280;66087;53.126;17.960;2024-02-15T11:56:54;101156.83;;;10.77;95.22
75555;BME280;66087;53.126;17.960;2024-02-15T11:59:41;101155.00;;;10.71;95.32
75555;BME280;66087;53.126;17.960;2024-02-15T12:02:17;101155.55;;;10.70;95.38
75555;BME280;66087;53.126;17.960;2024-02-15T12:04:54;101156.19;;;10.66;95.39
75555;BME280;66087;53.126;17.960;2024-02-15T12:07:32;101158.86;;;10.60;95.36
75555;BME280;66087;53.126;17.960;2024-02-15T12:10:16;101159.34;;;10.59;95.63
75555;BME280;66087;53.126;17.960;2024-02-15T12:12:54;101163.28;;;10.61;95.72
75555;BME280;66087;53.126;17.960;2024-02-15T12:15:31;101162.95;;;10.66;95.53
75555;BME280;66087;53.126;17.960;2024-02-15T12:18:17;101164.02;;;10.70;95.22
75555;BME280;66087;53.126;17.960;2024-02-15T12:20:56;101147.92;;;10.59;95.14
75555;BME280;66087;53.126;17.960;2024-02-15T12:23:23;101160.73;;;10.72;95.38
75555;BME280;66087;53.126;17.960;2024-02-15T12:25:52;101154.77;;;10.85;95.21
75555;BME280;66087;53.126;17.960;2024-02-15T13:21:04;101141.84;;;10.43;95.66
75555;BME280;66087;53.126;17.960;2024-02-15T13:23:33;101139.67;;;10.43;95.42
75555;BME280;66087;53.126;17.960;2024-02-15T13:26:02;101136.80;;;10.44;95.16
75555;BME280;66087;53.126;17.960;2024-02-15T13:28:31;101136.85;;;10.47;95.11
75555;BME280;66087;53.126;17.960;2024-02-15T13:30:58;101135.98;;;10.52;95.11
75555;BME280;66087;53.126;17.960;2024-02-15T13:33:25;101137.59;;;10.57;94.99
75555;BME280;66087;53.126;17.960;2024-02-15T13:35:55;101134.42;;;10.55;94.76
75555;BME280;66087;53.126;17.960;2024-02-15T13:38:23;101139.20;;;10.60;94.79
75555;BME280;66087;53.126;17.960;2024-02-15T13:40:51;101138.51;;;10.61;94.74
75555;BME280;66087;53.126;17.960;2024-02-15T13:43:21;101138.48;;;10.63;94.75
75555;BME280;66087;53.126;17.960;2024-02-15T13:45:49;101133.43;;;10.65;94.65